createdAt,value
2022-08-18T00:01:42.371Z,22.50
2022-08-18T00:04:21.775Z,22.50
2022-08-18T00:06:57.861Z,22.50
2022-08-18T00:09:27.717Z,22.50
2022-08-18T00:11:57.006Z,22.40
2022-08-18T00:14:23.633Z,22.40
2022-08-18T00:16:53.903Z,22.40
2022-08-18T00:19:43.500Z,22.40
2022-08-18T00:22:14.646Z,22.30
2022-08-18T00:24:48.521Z,22.30
2022-08-18T00:27:21.747Z,22.20
2022-08-18T00:29:49.782Z,22.20
2022-08-18T00:32:21.141Z,22.10
2022-08-18T00:34:47.805Z,22.10
2022-08-18T00:37:14.580Z,22.00
2022-08-18T00:39:46.124Z,22.00
2022-08-18T00:42:27.756Z,21.90
2022-08-18T00:45:00.313Z,21.90
2022-08-18T00:47:41.327Z,21.90
2022-08-18T00:50:15.132Z,21.90
2022-08-18T00:52:49.790Z,21.80
2022-08-18T00:55:18.381Z,21.80
2022-08-18T00:57:47.486Z,21.80
2022-08-18T01:00:15.198Z,21.80
2022-08-18T01:02:49.422Z,21.80
2022-08-18T01:05:30.480Z,21.80
2022-08-18T01:07:57.298Z,21.80
2022-08-18T01:10:24.190Z,21.80
2022-08-18T01:12:58.005Z,21.80
2022-08-18T01:15:30.247Z,21.80
2022-08-18T01:18:30.772Z,21.80
2022-08-18T01:21:23.250Z,21.70
2022-08-18T01:23:52.523Z,21.70
2022-08-18T01:26:22.619Z,21.70
2022-08-18T01:28:49.890Z,21.70
2022-08-18T01:31:39.800Z,21.60
2022-08-18T01:34:22.609Z,21.60
2022-08-18T01:36:52.337Z,21.60
2022-08-18T01:41:23.601Z,21.60
2022-08-18T01:42:07.320Z,21.60
2022-08-18T01:44:34.022Z,21.50
2022-08-18T01:47:00.784Z,21.50
2022-08-18T01:49:29.279Z,21.50
2022-08-18T01:51:56.171Z,21.50
2022-08-18T01:54:23.009Z,21.50
2022-08-18T01:56:50.195Z,21.50
2022-08-18T01:59:17.005Z,21.40
2022-08-18T02:01:48.205Z,21.30
2022-08-18T02:04:34.593Z,21.30
2022-08-18T02:07:06.205Z,21.30
2022-08-18T02:09:34.355Z,21.30
2022-08-18T02:12:01.584Z,21.30
2022-08-18T02:14:28.236Z,21.30
2022-08-18T02:17:02.094Z,21.20
2022-08-18T02:19:36.941Z,21.20
2022-08-18T02:22:04.584Z,21.20
2022-08-18T02:24:31.645Z,21.20
2022-08-18T02:26:59.466Z,21.20
2022-08-18T02:29:26.218Z,21.10
2022-08-18T02:31:53.263Z,21.10
2022-08-18T02:34:20.226Z,21.10
2022-08-18T02:36:46.882Z,21.00
2022-08-18T02:39:13.757Z,21.00
2022-08-18T02:41:40.591Z,21.00
2022-08-18T02:44:08.465Z,21.00
2022-08-18T02:46:37.098Z,21.00
2022-08-18T02:49:05.821Z,21.00
2022-08-18T02:51:32.530Z,20.90
2022-08-18T02:53:59.574Z,20.90
2022-08-18T02:56:40.812Z,20.80
2022-08-18T02:59:11.858Z,20.80
2022-08-18T03:01:41.795Z,20.80
2022-08-18T03:04:11.002Z,20.80
2022-08-18T03:06:39.119Z,20.80
2022-08-18T03:09:08.211Z,20.80
2022-08-18T03:11:35.284Z,20.80
2022-08-18T03:14:02.311Z,20.80
2022-08-18T03:16:33.122Z,20.70
2022-08-18T03:19:03.672Z,20.70
2022-08-18T03:21:32.209Z,20.70
2022-08-18T03:24:02.839Z,20.60
2022-08-18T03:26:31.293Z,20.60
2022-08-18T03:29:00.063Z,20.50
2022-08-18T03:31:30.125Z,20.40
2022-08-18T03:33:59.533Z,20.40
2022-08-18T03:36:29.432Z,20.40
2022-08-18T03:38:56.921Z,20.30
2022-08-18T03:41:43.857Z,20.30
2022-08-18T03:44:15.522Z,20.30
2022-08-18T03:46:44.103Z,20.20
2022-08-18T03:49:10.869Z,20.20
2022-08-18T03:51:38.323Z,20.30
2022-08-18T03:54:06.062Z,20.20
2022-08-18T03:56:38.086Z,20.20
2022-08-18T03:59:08.025Z,20.20
2022-08-18T04:01:40.939Z,20.20
2022-08-18T04:04:12.032Z,20.20
2022-08-18T04:06:50.292Z,20.10
2022-08-18T04:09:19.149Z,20.10
2022-08-18T04:11:46.500Z,20.10
2022-08-18T04:14:16.021Z,20.00
2022-08-18T04:16:43.185Z,20.00
2022-08-18T04:19:13.692Z,20.00
2022-08-18T04:21:42.555Z,19.90
2022-08-18T04:24:11.245Z,20.00
2022-08-18T04:26:42.010Z,20.00
2022-08-18T04:29:13.792Z,20.00
2022-08-18T04:31:40.682Z,20.00
2022-08-18T04:34:07.347Z,20.10
2022-08-18T04:36:35.874Z,20.10
2022-08-18T04:39:07.017Z,20.20
2022-08-18T04:41:35.500Z,20.30
2022-08-18T04:44:05.661Z,20.30
2022-08-18T04:46:37.397Z,20.40
2022-08-18T04:49:04.090Z,20.40
2022-08-18T04:52:26.721Z,20.50
2022-08-18T04:54:17.702Z,20.40
2022-08-18T04:56:44.347Z,20.50
2022-08-18T04:59:13.708Z,20.50
2022-08-18T05:01:47.970Z,20.60
2022-08-18T05:04:17.551Z,20.60
2022-08-18T05:06:45.578Z,20.70
2022-08-18T05:09:16.830Z,20.70
2022-08-18T05:11:50.543Z,20.80
2022-08-18T05:14:17.818Z,20.80
2022-08-18T05:16:48.600Z,21.00
2022-08-18T05:19:21.956Z,21.10
2022-08-18T05:21:53.363Z,21.20
2022-08-18T05:24:29.508Z,21.30
2022-08-18T05:26:59.109Z,21.40
2022-08-18T05:29:26.067Z,21.50
2022-08-18T05:31:53.800Z,21.60
2022-08-18T05:34:21.770Z,21.70
2022-08-18T05:37:00.914Z,21.80
2022-08-18T05:40:05.196Z,21.90
2022-08-18T05:42:39.044Z,22.00
2022-08-18T05:45:12.015Z,22.00
2022-08-18T05:47:39.266Z,22.20
2022-08-18T05:50:19.727Z,22.30
2022-08-18T05:52:55.077Z,22.30
2022-08-18T05:56:13.205Z,22.40
2022-08-18T05:58:49.136Z,22.60
2022-08-18T06:01:23.043Z,22.70
2022-08-18T06:03:55.448Z,22.80
2022-08-18T06:06:30.239Z,22.90
2022-08-18T06:09:10.491Z,23.00
2022-08-18T06:11:37.213Z,23.10
2022-08-18T06:14:03.956Z,23.20
2022-08-18T06:16:51.087Z,23.20
2022-08-18T06:19:42.297Z,23.30
2022-08-18T06:22:33.872Z,23.30
2022-08-18T06:25:16.510Z,23.40
2022-08-18T06:28:01.235Z,23.50
2022-08-18T06:30:42.496Z,23.60
2022-08-18T06:33:31.729Z,23.70
2022-08-18T06:36:25.320Z,23.80
2022-08-18T06:39:20.491Z,23.90
2022-08-18T06:41:50.019Z,23.90
2022-08-18T06:44:23.053Z,24.00
2022-08-18T06:47:41.218Z,24.10
2022-08-18T06:50:12.378Z,24.20
2022-08-18T06:52:51.525Z,24.30
2022-08-18T06:55:30.772Z,24.40
2022-08-18T06:58:00.373Z,24.60
2022-08-18T07:00:32.620Z,24.70
2022-08-18T07:03:15.069Z,24.90
2022-08-18T07:06:21.068Z,25.00
2022-08-18T07:08:50.210Z,25.20
2022-08-18T07:11:24.239Z,25.30
2022-08-18T07:14:14.499Z,25.50
2022-08-18T07:16:57.964Z,25.70
2022-08-18T07:19:29.759Z,25.90
2022-08-18T07:22:05.266Z,26.10
2022-08-18T07:24:38.638Z,26.20
2022-08-18T07:27:14.711Z,26.30
2022-08-18T07:30:00.767Z,26.50
2022-08-18T07:32:36.057Z,26.50
2022-08-18T07:35:07.257Z,26.60
2022-08-18T07:37:45.345Z,26.80
2022-08-18T07:40:54.068Z,26.80
2022-08-18T07:43:42.626Z,26.90
2022-08-18T07:46:44.869Z,26.80
2022-08-18T07:49:22.226Z,26.70
2022-08-18T07:51:56.330Z,26.80
2022-08-18T07:55:02.270Z,26.90
2022-08-18T07:57:51.753Z,26.90
2022-08-18T08:01:00.444Z,27.00
2022-08-18T08:03:42.437Z,27.10
2022-08-18T08:06:16.049Z,27.20
2022-08-18T08:08:51.942Z,27.30
2022-08-18T08:12:34.772Z,27.40
2022-08-18T08:16:00.389Z,27.40
2022-08-18T08:25:47.146Z,28.20
2022-08-18T08:28:37.066Z,28.50
2022-08-18T08:31:33.445Z,28.90
2022-08-18T08:34:06.875Z,29.20
2022-08-18T08:36:39.587Z,29.40
2022-08-18T08:39:51.289Z,29.60
2022-08-18T08:42:52.599Z,29.80
2022-08-18T08:46:30.586Z,30.00
2022-08-18T08:49:07.512Z,30.30
2022-08-18T08:51:42.558Z,30.50
2022-08-18T08:54:44.607Z,30.70
2022-08-18T08:57:13.953Z,30.90
2022-08-18T08:59:42.566Z,31.10
2022-08-18T09:02:47.937Z,31.20
2022-08-18T09:05:21.059Z,31.60
2022-08-18T09:07:54.651Z,32.10
2022-08-18T09:10:39.552Z,32.60
2022-08-18T09:13:32.458Z,32.90
2022-08-18T09:16:02.788Z,33.30
2022-08-18T09:19:04.842Z,33.60
2022-08-18T09:21:49.673Z,34.00
2022-08-18T09:24:27.281Z,34.30
2022-08-18T09:27:13.730Z,34.60
2022-08-18T09:29:57.118Z,34.90
2022-08-18T09:32:25.906Z,35.10
2022-08-18T09:35:36.361Z,35.50
2022-08-18T09:38:34.582Z,35.90
2022-08-18T09:41:31.864Z,36.10
2022-08-18T09:44:11.974Z,36.30
2022-08-18T09:46:46.555Z,36.60
2022-08-18T09:52:24.484Z,36.90
2022-08-18T09:54:58.400Z,37.00
2022-08-18T09:58:10.047Z,37.30
2022-08-18T10:00:38.237Z,37.50
2022-08-18T10:03:14.332Z,37.60
2022-08-18T10:05:54.789Z,37.70
2022-08-18T10:08:36.159Z,37.80
2022-08-18T10:11:37.028Z,37.90
2022-08-18T10:14:14.187Z,38.10
2022-08-18T10:17:21.650Z,38.00
2022-08-18T10:20:06.968Z,38.00
2022-08-18T10:22:37.658Z,37.80
2022-08-18T10:25:22.245Z,37.80
2022-08-18T10:27:54.503Z,37.80
2022-08-18T10:30:34.232Z,37.80
2022-08-18T10:33:17.295Z,37.90
2022-08-18T10:35:59.254Z,37.90
2022-08-18T10:38:46.134Z,37.80
2022-08-18T10:41:24.193Z,38.10
2022-08-18T10:43:55.629Z,38.20
2022-08-18T10:46:32.592Z,38.20
2022-08-18T10:49:04.264Z,38.20
2022-08-18T10:51:59.832Z,38.30
2022-08-18T10:54:51.775Z,38.30
2022-08-18T10:57:53.650Z,37.40
2022-08-18T11:00:22.923Z,36.80
2022-08-18T11:06:21.440Z,37.40
2022-08-18T11:11:53.390Z,37.30
2022-08-18T11:15:01.042Z,36.80
2022-08-18T11:21:33.555Z,35.50
2022-08-18T11:24:11.833Z,35.00
2022-08-18T11:26:53.628Z,34.70
2022-08-18T11:29:36.449Z,34.40
2022-08-18T11:32:15.753Z,34.30
2022-08-18T11:35:02.570Z,34.60
2022-08-18T11:37:58.140Z,34.80
2022-08-18T11:43:40.882Z,34.70
2022-08-18T11:46:38.932Z,34.60
2022-08-18T11:49:33.662Z,34.40
2022-08-18T11:52:19.870Z,34.20
2022-08-18T11:55:16.747Z,34.00
2022-08-18T12:01:01.372Z,33.80
2022-08-18T12:03:38.105Z,33.70
2022-08-18T12:06:20.179Z,33.60
2022-08-18T12:08:56.343Z,33.50
2022-08-18T12:11:29.345Z,33.50
2022-08-18T12:14:32.337Z,33.50
2022-08-18T12:17:02.275Z,33.40
2022-08-18T12:19:34.421Z,33.50
2022-08-18T12:22:03.188Z,33.50
2022-08-18T12:24:39.499Z,33.70
2022-08-18T12:27:21.116Z,33.90
2022-08-18T12:29:53.176Z,34.10
2022-08-18T12:32:49.894Z,34.10
2022-08-18T12:35:11.575Z,34.20
2022-08-18T12:37:58.996Z,34.20
2022-08-18T12:40:26.690Z,34.10
2022-08-18T12:42:55.826Z,33.90
2022-08-18T12:45:24.762Z,33.70
2022-08-18T12:47:52.724Z,33.60
2022-08-18T12:50:19.894Z,33.70
2022-08-18T12:52:46.767Z,33.70
2022-08-18T12:55:21.770Z,33.50
2022-08-18T12:57:53.270Z,33.50
2022-08-18T13:03:08.517Z,33.20
2022-08-18T13:05:37.130Z,33.00
2022-08-18T13:08:05.689Z,32.90
2022-08-18T13:10:45.420Z,32.70
2022-08-18T13:13:13.655Z,32.60
2022-08-18T13:15:44.509Z,32.40
2022-08-18T13:18:28.680Z,32.30
2022-08-18T13:20:57.532Z,32.20
2022-08-18T13:23:27.108Z,32.20
2022-08-18T13:26:01.270Z,32.20
2022-08-18T13:28:35.884Z,32.10
2022-08-18T13:31:17.665Z,32.20
2022-08-18T13:33:56.943Z,32.20
2022-08-18T13:36:27.260Z,32.10
2022-08-18T13:38:55.724Z,32.10
2022-08-18T13:43:51.447Z,32.10
2022-08-18T13:46:24.296Z,32.20
2022-08-18T13:49:03.138Z,32.30
2022-08-18T13:51:31.167Z,32.30
2022-08-18T13:54:18.335Z,32.30
2022-08-18T13:56:51.597Z,32.30
2022-08-18T13:59:20.638Z,32.20
2022-08-18T14:01:52.540Z,32.00
2022-08-18T14:04:22.311Z,31.80
2022-08-18T14:06:57.032Z,31.80
2022-08-18T14:09:36.736Z,31.70
2022-08-18T14:12:27.038Z,31.80
2022-08-18T14:14:57.079Z,31.70
2022-08-18T14:17:25.284Z,31.80
2022-08-18T14:20:15.196Z,31.80
2022-08-18T14:23:12.912Z,31.90
2022-08-18T14:25:59.767Z,31.90
2022-08-18T14:28:28.316Z,32.00
2022-08-18T14:30:57.153Z,32.00
2022-08-18T14:33:33.882Z,32.10
2022-08-18T14:36:05.026Z,32.40
2022-08-18T14:38:35.233Z,32.60
2022-08-18T14:41:08.875Z,32.70
2022-08-18T14:44:04.067Z,32.80
2022-08-18T14:46:23.720Z,32.90
2022-08-18T14:48:56.571Z,32.90
2022-08-18T14:51:27.139Z,32.80
2022-08-18T14:53:54.532Z,32.70
2022-08-18T14:56:23.472Z,32.50
2022-08-18T14:58:55.171Z,32.40
2022-08-18T15:01:23.273Z,32.20
2022-08-18T15:03:50.182Z,32.00
2022-08-18T15:06:22.734Z,31.90
2022-08-18T15:08:53.726Z,31.70
2022-08-18T15:11:23.280Z,31.50
2022-08-18T15:13:51.546Z,31.40
2022-08-18T15:16:31.703Z,31.20
2022-08-18T15:18:59.033Z,31.10
2022-08-18T15:21:44.321Z,30.80
2022-08-18T15:24:32.954Z,30.60
2022-08-18T15:27:06.170Z,30.10
2022-08-18T15:29:41.561Z,29.10
2022-08-18T15:32:15.285Z,28.20
2022-08-18T15:34:46.162Z,27.30
2022-08-18T15:37:15.168Z,26.40
2022-08-18T15:39:42.390Z,25.70
2022-08-18T15:42:11.668Z,25.30
2022-08-18T15:44:40.373Z,24.60
2022-08-18T15:47:11.727Z,24.10
2022-08-18T15:49:38.910Z,24.00
2022-08-18T15:55:14.509Z,23.90
2022-08-18T18:17:37.909Z,22.60
2022-08-18T18:20:29.815Z,22.60
2022-08-18T18:26:22.644Z,22.60
2022-08-18T18:28:50.551Z,22.50
2022-08-18T18:31:26.873Z,22.50
2022-08-18T18:34:06.952Z,22.50
2022-08-18T18:36:50.276Z,22.50
2022-08-18T18:39:20.738Z,22.60
2022-08-18T18:41:51.437Z,22.60
2022-08-18T18:44:32.731Z,22.50
2022-08-18T18:47:06.186Z,22.60
2022-08-18T18:49:53.361Z,22.60
2022-08-18T18:52:43.218Z,22.60
2022-08-18T18:55:22.986Z,22.60
2022-08-18T18:58:21.447Z,22.60
2022-08-18T19:00:56.018Z,22.60
2022-08-18T19:03:42.045Z,22.60
2022-08-18T19:06:42.890Z,22.60
2022-08-18T19:09:25.241Z,22.50
2022-08-18T19:12:18.082Z,22.50
2022-08-18T19:15:00.363Z,22.50
2022-08-18T19:17:46.909Z,22.60
2022-08-18T19:20:23.312Z,22.60
2022-08-18T19:23:05.674Z,22.70
2022-08-18T19:25:42.406Z,22.70
2022-08-18T19:28:16.448Z,22.70
2022-08-18T19:30:45.849Z,22.80
2022-08-18T19:33:24.799Z,22.80
2022-08-18T19:36:05.970Z,22.70
2022-08-18T19:38:57.861Z,22.70
2022-08-18T19:41:39.135Z,22.60
2022-08-18T19:44:36.926Z,22.70
2022-08-18T19:47:27.971Z,22.60
2022-08-18T19:50:18.793Z,22.70
2022-08-18T19:52:59.691Z,22.70
2022-08-18T19:55:53.972Z,22.70
2022-08-18T19:58:23.562Z,22.70
2022-08-18T20:01:04.840Z,22.60
2022-08-18T20:03:52.721Z,22.70
2022-08-18T20:06:57.359Z,22.50
2022-08-18T20:09:32.869Z,22.50
2022-08-18T20:12:14.015Z,22.50
2022-08-18T20:14:43.681Z,22.50
2022-08-18T20:17:18.618Z,22.50
2022-08-18T20:20:07.073Z,22.50
2022-08-18T20:22:44.106Z,22.50
2022-08-18T20:25:38.371Z,22.50
2022-08-18T20:28:23.817Z,22.50
2022-08-18T20:31:13.768Z,22.50
2022-08-18T20:37:25.199Z,22.50
2022-08-18T20:39:56.016Z,22.40
2022-08-18T20:46:43.032Z,22.40
2022-08-18T20:49:58.393Z,22.40
2022-08-18T20:53:08.573Z,22.40
2022-08-18T20:55:54.106Z,22.40
2022-08-18T20:58:26.384Z,22.40
2022-08-18T21:00:57.046Z,22.40
2022-08-18T21:04:05.325Z,22.40
2022-08-18T21:06:41.875Z,22.40
2022-08-18T21:09:09.484Z,22.40
2022-08-18T21:11:44.283Z,22.40
2022-08-18T21:14:12.930Z,22.40
2022-08-18T21:16:45.048Z,22.40
2022-08-18T21:19:27.513Z,22.40
2022-08-18T21:21:59.225Z,22.40
2022-08-18T21:24:34.239Z,22.60
2022-08-18T21:27:10.622Z,22.50
2022-08-18T21:29:49.171Z,22.50
2022-08-18T21:32:32.114Z,22.40
2022-08-18T21:35:05.762Z,22.50
2022-08-18T21:37:34.891Z,22.50
2022-08-18T21:40:04.964Z,22.50
2022-08-18T21:42:42.346Z,22.50
2022-08-18T21:45:23.137Z,22.40
2022-08-18T21:47:53.687Z,22.30
2022-08-18T21:50:26.447Z,22.30
2022-08-18T21:52:58.568Z,22.30
2022-08-18T21:55:30.373Z,22.30
2022-08-18T21:58:07.265Z,22.40
2022-08-18T22:01:05.797Z,22.30
2022-08-18T22:03:34.854Z,22.40
2022-08-18T22:06:13.888Z,22.30
2022-08-18T22:08:56.030Z,22.20
2022-08-18T22:12:01.044Z,22.10
2022-08-18T22:14:32.967Z,22.20
2022-08-18T22:17:33.660Z,22.10
2022-08-18T22:20:32.305Z,22.10
2022-08-18T22:23:36.353Z,22.00
2022-08-18T22:26:14.346Z,21.90
2022-08-18T22:28:53.796Z,21.90
2022-08-18T22:32:17.216Z,21.90
2022-08-18T22:34:43.942Z,21.80
2022-08-18T22:37:10.711Z,21.80
2022-08-18T22:39:43.688Z,21.80
2022-08-18T22:42:11.089Z,21.90
2022-08-18T22:44:39.467Z,21.80
2022-08-18T22:47:06.874Z,21.80
2022-08-18T22:49:37.760Z,21.80
2022-08-18T22:52:17.473Z,21.90
2022-08-18T22:54:44.226Z,21.90
2022-08-18T22:57:10.998Z,21.90
2022-08-18T22:59:37.677Z,21.90
2022-08-18T23:02:11.294Z,21.80
2022-08-18T23:04:37.972Z,21.80
2022-08-18T23:07:04.692Z,21.80
2022-08-18T23:09:33.775Z,21.80
2022-08-18T23:12:21.435Z,21.90
2022-08-18T23:14:51.825Z,21.80
2022-08-18T23:17:18.622Z,21.80
2022-08-18T23:19:46.583Z,21.80
2022-08-18T23:22:14.399Z,21.80
2022-08-18T23:24:41.451Z,21.80
2022-08-18T23:27:09.495Z,21.80
2022-08-18T23:29:36.629Z,21.90
2022-08-18T23:32:05.791Z,21.90
2022-08-18T23:34:33.423Z,21.90
2022-08-18T23:37:01.514Z,21.90
2022-08-18T23:39:29.754Z,21.90
2022-08-18T23:41:57.323Z,22.00
2022-08-18T23:44:27.611Z,22.00
2022-08-18T23:46:59.215Z,21.90
2022-08-18T23:49:30.853Z,21.90
2022-08-18T23:51:59.252Z,21.90
2022-08-18T23:54:32.031Z,21.80
2022-08-18T23:56:59.275Z,21.80
2022-08-18T23:59:27.360Z,21.90
